Time,TemperatureF,DewpointF,PressureIn,WindDirection,WindDirectionDegrees,WindSpeedMPH,WindSpeedGustMPH,Humidity,HourlyPrecipIn,Conditions,Clouds,dailyrainin,SoftwareType,DateUTC
2013-09-01 00:01:00,63.5,62.9,29.85,SE,141,0.0,0.0,98,0.00,,,0.00,Wunderground v.1.15,2013-09-01 04:01:00,
2013-09-01 00:02:00,63.5,62.9,29.85,SE,141,0.0,0.0,98,0.00,,,0.00,Wunderground v.1.15,2013-09-01 04:02:00,
2013-09-01 00:03:00,63.5,62.9,29.85,SE,141,0.0,0.0,98,0.00,,,0.00,Wunderground v.1.15,2013-09-01 04:03:00,
2013-09-01 00:07:00,63.5,62.9,29.85,SSE,152,0.0,0.0,98,0.00,,,0.00,Wunderground v.1.15,2013-09-01 04:07:00,
2013-09-01 00:13:00,63.8,63.2,29.85,SE,124,0.0,0.0,98,0.00,,,0.00,Wunderground v.1.15,2013-09-01 04:13:00,
2013-09-01 00:18:00,63.8,62.9,29.85,SE,124,0.0,0.0,97,0.00,,,0.00,Wunderground v.1.15,2013-09-01 04:18:00,
2013-09-01 00:24:00,63.8,62.9,29.85,SE,124,0.0,0.0,97,0.00,,,0.00,Wunderground v.1.15,2013-09-01 04:24:00,
2013-09-01 00:30:00,63.7,62.8,29.85,SE,124,0.0,0.0,97,0.00,,,0.00,Wunderground v.1.15,2013-09-01 04:30:00,
2013-09-01 00:35:00,63.7,62.8,29.85,SE,124,0.0,0.0,97,0.00,,,0.00,Wunderground v.1.15,2013-09-01 04:35:00,
2013-09-01 00:41:00,63.5,62.6,29.85,SE,124,0.0,0.0,97,0.00,,,0.00,Wunderground v.1.15,2013-09-01 04:41:00,
2013-09-01 00:46:00,63.4,62.5,29.85,SE,124,0.0,0.0,97,0.00,,,0.00,Wunderground v.1.15,2013-09-01 04:46:00,
2013-09-01 00:52:00,63.1,62.2,29.85,SE,124,0.0,0.0,97,0.00,,,0.00,Wunderground v.1.15,2013-09-01 04:52:00,
2013-09-01 00:57:00,63.0,62.1,29.85,SE,124,0.0,0.0,97,0.00,,,0.00,Wunderground v.1.15,2013-09-01 04:57:00,
2013-09-01 01:01:00,62.9,62.0,29.85,SE,124,0.0,0.0,97,0.00,,,0.00,Wunderground v.1.15,2013-09-01 05:01:00,
2013-09-01 01:06:00,62.9,62.0,29.85,SE,124,0.0,0.0,97,0.00,,,0.00,Wunderground v.1.15,2013-09-01 05:06:00,
2013-09-01 01:12:00,62.7,61.8,29.85,SE,124,0.0,0.0,97,0.00,,,0.00,Wunderground v.1.15,2013-09-01 05:12:00,
2013-09-01 01:17:00,62.7,62.1,29.84,SE,124,0.0,0.0,98,0.00,,,0.00,Wunderground v.1.15,2013-09-01 05:17:00,
2013-09-01 01:23:00,62.7,62.1,29.84,SE,124,0.0,0.0,98,0.00,,,0.00,Wunderground v.1.15,2013-09-01 05:23:00,
2013-09-01 01:28:00,62.6,62.0,29.84,SE,124,0.0,0.0,98,0.00,,,0.00,Wunderground v.1.15,2013-09-01 05:28:00,
2013-09-01 01:33:00,62.6,62.0,29.84,SE,124,0.0,0.0,98,0.00,,,0.00,Wunderground v.1.15,2013-09-01 05:33:00,
2013-09-01 01:39:00,62.5,61.9,29.84,SE,124,0.0,0.0,98,0.00,,,0.00,Wunderground v.1.15,2013-09-01 05:39:00,
2013-09-01 01:45:00,62.5,61.9,29.83,SE,124,0.0,0.0,98,0.00,,,0.00,Wunderground v.1.15,2013-09-01 05:45:00,
2013-09-01 01:51:00,62.4,61.8,29.83,SE,124,0.0,0.0,98,0.00,,,0.00,Wunderground v.1.15,2013-09-01 05:51:00,
2013-09-01 01:57:00,62.4,61.8,29.83,ESE,122,0.0,0.0,98,0.00,,,0.00,Wunderground v.1.15,2013-09-01 05:57:00,
2013-09-01 02:02:00,62.5,61.9,29.82,ESE,122,0.0,0.0,98,0.00,,,0.00,Wunderground v.1.15,2013-09-01 06:02:00,
2013-09-01 02:07:00,62.5,61.9,29.82,SE,124,0.0,0.0,98,0.00,,,0.00,Wunderground v.1.15,2013-09-01 06:07:00,
2013-09-01 02:12:00,62.7,62.1,29.83,SE,124,0.0,0.0,98,0.00,,,0.00,Wunderground v.1.15,2013-09-01 06:12:00,
2013-09-01 02:17:00,62.8,62.2,29.82,SE,124,0.0,1.0,98,0.00,,,0.00,Wunderground v.1.15,2013-09-01 06:17:00,
2013-09-01 02:22:00,63.0,62.4,29.82,SE,124,0.0,1.0,98,0.00,,,0.00,Wunderground v.1.15,2013-09-01 06:22:00,
2013-09-01 02:27:00,63.2,62.6,29.82,SE,124,0.0,1.0,98,0.00,,,0.00,Wunderground v.1.15,2013-09-01 06:27:00,
2013-09-01 02:32:00,63.3,62.7,29.82,West,264,0.0,2.0,98,0.00,,,0.00,Wunderground v.1.15,2013-09-01 06:32:00,
2013-09-01 02:37:00,63.7,62.8,29.82,West,261,0.0,2.0,97,0.00,,,0.00,Wunderground v.1.15,2013-09-01 06:37:00,
2013-09-01 02:42:00,63.8,62.6,29.82,West,262,0.0,0.0,96,0.00,,,0.00,Wunderground v.1.15,2013-09-01 06:42:00,
2013-09-01 02:47:00,64.1,62.9,29.82,West,261,0.0,1.0,96,0.00,,,0.00,Wunderground v.1.15,2013-09-01 06:47:00,
2013-09-01 02:52:00,64.4,63.2,29.82,West,273,0.0,2.0,96,0.00,,,0.00,Wunderground v.1.15,2013-09-01 06:52:00,
2013-09-01 02:57:00,65.0,63.5,29.83,SW,229,0.0,2.0,95,0.00,,,0.00,Wunderground v.1.15,2013-09-01 06:57:00,
2013-09-01 03:02:00,65.2,63.4,29.83,WSW,240,0.0,1.0,94,0.00,,,0.00,Wunderground v.1.15,2013-09-01 07:02:00,
2013-09-01 03:07:00,65.5,63.4,29.82,West,269,1.0,4.0,93,0.00,,,0.00,Wunderground v.1.15,2013-09-01 07:07:00,
2013-09-01 03:12:00,65.8,63.7,29.83,SSW,209,0.0,2.0,93,0.00,,,0.00,Wunderground v.1.15,2013-09-01 07:12:00,
2013-09-01 03:17:00,65.6,63.2,29.82,SSW,210,0.0,2.0,92,0.00,,,0.00,Wunderground v.1.15,2013-09-01 07:17:00,
2013-09-01 03:22:00,65.3,62.9,29.82,SSW,210,0.0,0.0,92,0.00,,,0.00,Wunderground v.1.15,2013-09-01 07:22:00,
2013-09-01 03:27:00,65.1,63.0,29.82,West,273,1.0,1.0,93,0.00,,,0.00,Wunderground v.1.15,2013-09-01 07:27:00,
2013-09-01 03:32:00,65.1,63.3,29.82,West,262,1.0,2.0,94,0.00,,,0.00,Wunderground v.1.15,2013-09-01 07:32:00,
2013-09-01 03:37:00,65.4,63.6,29.82,SW,231,0.0,2.0,94,0.00,,,0.00,Wunderground v.1.15,2013-09-01 07:37:00,
2013-09-01 03:42:00,65.4,63.6,29.82,SW,230,0.0,1.0,94,0.00,,,0.00,Wunderground v.1.15,2013-09-01 07:42:00,
2013-09-01 03:47:00,65.3,63.5,29.82,SW,229,0.0,1.0,94,0.00,,,0.00,Wunderground v.1.15,2013-09-01 07:47:00,
2013-09-01 03:52:00,65.2,63.4,29.82,SW,229,0.0,0.0,94,0.00,,,0.00,Wunderground v.1.15,2013-09-01 07:52:00,
2013-09-01 03:57:00,65.1,63.3,29.82,SW,230,0.0,1.0,94,0.00,,,0.00,Wunderground v.1.15,2013-09-01 07:57:00,
2013-09-01 04:02:00,64.9,63.1,29.82,SW,229,0.0,1.0,94,0.00,,,0.00,Wunderground v.1.15,2013-09-01 08:02:00,
2013-09-01 04:07:00,64.6,63.1,29.82,SW,229,0.0,1.0,95,0.00,,,0.00,Wunderground v.1.15,2013-09-01 08:07:00,
2013-09-01 04:12:00,64.4,62.9,29.82,SW,229,0.0,0.0,95,0.00,,,0.00,Wunderground v.1.15,2013-09-01 08:12:00,
2013-09-01 04:17:00,64.2,62.7,29.82,SW,219,0.0,0.0,95,0.00,,,0.00,Wunderground v.1.15,2013-09-01 08:17:00,
2013-09-01 04:22:00,64.0,62.8,29.82,SW,219,0.0,0.0,96,0.00,,,0.00,Wunderground v.1.15,2013-09-01 08:22:00,
2013-09-01 04:27:00,64.0,62.8,29.82,SW,219,0.0,0.0,96,0.00,,,0.00,Wunderground v.1.15,2013-09-01 08:27:00,
2013-09-01 04:32:00,64.3,63.7,29.82,SW,219,0.0,0.0,98,0.00,,,0.00,Wunderground v.1.15,2013-09-01 08:32:00,
2013-09-01 04:37:00,64.7,64.1,29.82,WSW,245,0.0,2.0,98,0.00,,,0.00,Wunderground v.1.15,2013-09-01 08:37:00,
2013-09-01 04:42:00,64.8,63.9,29.82,WSW,245,0.0,0.0,97,0.00,,,0.00,Wunderground v.1.15,2013-09-01 08:42:00,
2013-09-01 04:47:00,64.6,63.7,29.82,WSW,245,0.0,0.0,97,0.00,,,0.00,Wunderground v.1.15,2013-09-01 08:47:00,
2013-09-01 04:52:00,64.4,63.5,29.82,WSW,245,0.0,0.0,97,0.00,,,0.00,Wunderground v.1.15,2013-09-01 08:52:00,
2013-09-01 04:57:00,64.5,63.9,29.82,WSW,245,0.0,0.0,98,0.00,,,0.00,Wunderground v.1.15,2013-09-01 08:57:00,
2013-09-01 05:02:00,64.5,63.9,29.82,SE,135,0.0,1.0,98,0.00,,,0.00,Wunderground v.1.15,2013-09-01 09:02:00,
2013-09-01 05:07:00,64.2,63.3,29.82,SE,136,0.0,1.0,97,0.00,,,0.00,Wunderground v.1.15,2013-09-01 09:07:00,
2013-09-01 05:12:00,64.1,63.5,29.82,SE,145,0.0,1.0,98,0.00,,,0.01,Wunderground v.1.15,2013-09-01 09:12:00,
2013-09-01 05:17:00,64.3,63.7,29.82,SSE,152,0.0,1.0,98,0.00,,,0.01,Wunderground v.1.15,2013-09-01 09:17:00,
2013-09-01 05:22:00,64.4,63.8,29.82,SSE,152,0.0,0.0,98,0.00,,,0.01,Wunderground v.1.15,2013-09-01 09:22:00,
2013-09-01 05:27:00,64.4,64.1,29.81,WSW,238,1.0,1.0,99,0.00,,,0.01,Wunderground v.1.15,2013-09-01 09:27:00,
2013-09-01 05:32:00,64.5,64.2,29.81,WSW,238,0.0,0.0,99,0.00,,,0.01,Wunderground v.1.15,2013-09-01 09:32:00,
2013-09-01 05:37:00,64.4,64.1,29.82,SW,233,0.0,1.0,99,0.00,,,0.01,Wunderground v.1.15,2013-09-01 09:37:00,
2013-09-01 05:42:00,64.5,64.2,29.82,SW,225,0.0,1.0,99,0.00,,,0.01,Wunderground v.1.15,2013-09-01 09:42:00,
2013-09-01 05:47:00,64.8,64.8,29.82,SW,227,0.0,1.0,100,0.00,,,0.01,Wunderground v.1.15,2013-09-01 09:47:00,
2013-09-01 05:52:00,65.0,65.0,29.82,SW,224,1.0,2.0,100,0.00,,,0.01,Wunderground v.1.15,2013-09-01 09:52:00,
2013-09-01 05:57:00,65.2,65.2,29.82,SW,222,0.0,3.0,100,0.00,,,0.01,Wunderground v.1.15,2013-09-01 09:57:00,
2013-09-01 06:02:00,65.3,65.0,29.82,SW,228,0.0,3.0,99,0.00,,,0.01,Wunderground v.1.15,2013-09-01 10:02:00,
2013-09-01 06:07:00,65.3,65.0,29.82,SW,223,0.0,4.0,99,0.00,,,0.01,Wunderground v.1.15,2013-09-01 10:07:00,
2013-09-01 06:12:00,65.3,65.0,29.82,SW,217,1.0,1.0,99,0.00,,,0.01,Wunderground v.1.15,2013-09-01 10:12:00,
2013-09-01 06:17:00,65.2,64.9,29.82,West,259,2.0,3.0,99,0.00,,,0.01,Wunderground v.1.15,2013-09-01 10:17:00,
2013-09-01 06:22:00,65.1,64.5,29.82,SSW,201,1.0,1.0,98,0.00,,,0.01,Wunderground v.1.15,2013-09-01 10:22:00,
2013-09-01 06:27:00,64.9,64.3,29.81,SSW,202,0.0,1.0,98,0.00,,,0.01,Wunderground v.1.15,2013-09-01 10:27:00,
2013-09-01 06:32:00,64.8,64.2,29.81,South,191,0.0,1.0,98,0.00,,,0.01,Wunderground v.1.15,2013-09-01 10:32:00,
2013-09-01 06:37:00,64.6,64.0,29.81,South,191,0.0,1.0,98,0.00,,,0.01,Wunderground v.1.15,2013-09-01 10:37:00,
2013-09-01 06:42:00,64.6,64.3,29.82,South,191,0.0,0.0,99,0.00,,,0.01,Wunderground v.1.15,2013-09-01 10:42:00,
2013-09-01 06:47:00,64.6,64.3,29.82,South,191,0.0,0.0,99,0.00,,,0.01,Wunderground v.1.15,2013-09-01 10:47:00,
2013-09-01 06:52:00,64.5,64.2,29.82,South,191,0.0,0.0,99,0.00,,,0.01,Wunderground v.1.15,2013-09-01 10:52:00,
2013-09-01 06:57:00,64.3,64.0,29.82,SSW,192,0.0,0.0,99,0.00,,,0.01,Wunderground v.1.15,2013-09-01 10:57:00,
2013-09-01 07:02:00,64.3,64.0,29.83,West,266,0.0,2.0,99,0.00,,,0.01,Wunderground v.1.15,2013-09-01 11:02:00,
2013-09-01 07:07:00,64.2,63.9,29.83,NW,314,0.0,2.0,99,0.00,,,0.01,Wunderground v.1.15,2013-09-01 11:07:00,
2013-09-01 07:12:00,64.3,64.0,29.83,South,184,0.0,2.0,99,0.00,,,0.01,Wunderground v.1.15,2013-09-01 11:12:00,
2013-09-01 07:17:00,64.3,64.0,29.83,SE,129,0.0,2.0,99,0.00,,,0.01,Wunderground v.1.15,2013-09-01 11:17:00,
2013-09-01 07:22:00,64.2,63.9,29.83,SE,130,0.0,0.0,99,0.00,,,0.01,Wunderground v.1.15,2013-09-01 11:22:00,
2013-09-01 07:27:00,64.2,63.9,29.83,SE,130,0.0,0.0,99,0.00,,,0.01,Wunderground v.1.15,2013-09-01 11:27:00,
2013-09-01 07:32:00,64.1,63.8,29.83,SE,129,0.0,0.0,99,0.00,,,0.01,Wunderground v.1.15,2013-09-01 11:32:00,
2013-09-01 07:37:00,64.3,64.0,29.83,SE,130,0.0,0.0,99,0.00,,,0.01,Wunderground v.1.15,2013-09-01 11:37:00,
2013-09-01 07:42:00,64.4,64.1,29.83,SE,129,0.0,0.0,99,0.00,,,0.01,Wunderground v.1.15,2013-09-01 11:42:00,
2013-09-01 07:47:00,64.6,64.3,29.83,SE,130,0.0,0.0,99,0.00,,,0.01,Wunderground v.1.15,2013-09-01 11:47:00,
2013-09-01 07:52:00,64.9,64.6,29.83,SE,130,0.0,0.0,99,0.00,,,0.01,Wunderground v.1.15,2013-09-01 11:52:00,
2013-09-01 07:57:00,65.2,64.9,29.83,SE,129,0.0,0.0,99,0.00,,,0.01,Wunderground v.1.15,2013-09-01 11:57:00,
2013-09-01 08:02:00,65.5,65.5,29.83,SE,129,0.0,1.0,100,0.00,,,0.01,Wunderground v.1.15,2013-09-01 12:02:00,
2013-09-01 08:07:00,65.9,65.9,29.83,SE,130,0.0,1.0,100,0.00,,,0.01,Wunderground v.1.15,2013-09-01 12:07:00,
2013-09-01 08:12:00,66.0,65.7,29.83,SSW,212,1.0,1.0,99,0.00,,,0.01,Wunderground v.1.15,2013-09-01 12:12:00,
2013-09-01 08:17:00,66.1,65.8,29.83,SSW,195,0.0,1.0,99,0.00,,,0.01,Wunderground v.1.15,2013-09-01 12:17:00,
2013-09-01 08:22:00,66.4,65.8,29.83,SSW,210,0.0,2.0,98,0.00,,,0.01,Wunderground v.1.15,2013-09-01 12:22:00,
2013-09-01 08:27:00,66.6,65.7,29.83,SSW,213,0.0,2.0,97,0.00,,,0.01,Wunderground v.1.15,2013-09-01 12:27:00,
2013-09-01 08:32:00,66.7,65.5,29.83,SSW,204,0.0,2.0,96,0.00,,,0.01,Wunderground v.1.15,2013-09-01 12:32:00,
2013-09-01 08:37:00,66.8,65.3,29.83,WSW,243,1.0,3.0,95,0.00,,,0.01,Wunderground v.1.15,2013-09-01 12:37:00,
2013-09-01 08:42:00,66.9,65.1,29.83,WSW,238,1.0,3.0,94,0.00,,,0.01,Wunderground v.1.15,2013-09-01 12:42:00,
2013-09-01 08:47:00,66.9,64.8,29.83,WSW,255,0.0,3.0,93,0.00,,,0.01,Wunderground v.1.15,2013-09-01 12:47:00,
2013-09-01 08:52:00,67.0,64.9,29.83,West,264,1.0,3.0,93,0.00,,,0.01,Wunderground v.1.15,2013-09-01 12:52:00,
2013-09-01 08:57:00,67.1,65.0,29.84,WSW,246,0.0,3.0,93,0.00,,,0.01,Wunderground v.1.15,2013-09-01 12:57:00,
2013-09-01 09:02:00,67.1,65.0,29.84,WSW,242,1.0,2.0,93,0.00,,,0.01,Wunderground v.1.15,2013-09-01 13:02:00,
2013-09-01 09:07:00,67.1,65.0,29.84,SSW,194,0.0,2.0,93,0.00,,,0.01,Wunderground v.1.15,2013-09-01 13:07:00,
2013-09-01 09:12:00,67.2,65.1,29.84,SSW,195,0.0,1.0,93,0.00,,,0.01,Wunderground v.1.15,2013-09-01 13:12:00,
2013-09-01 09:17:00,67.3,65.2,29.84,SSW,198,0.0,1.0,93,0.00,,,0.01,Wunderground v.1.15,2013-09-01 13:17:00,
2013-09-01 09:22:00,67.5,65.4,29.83,SSW,198,0.0,1.0,93,0.00,,,0.01,Wunderground v.1.15,2013-09-01 13:22:00,
2013-09-01 09:27:00,67.6,65.2,29.83,SSW,195,0.0,2.0,92,0.00,,,0.01,Wunderground v.1.15,2013-09-01 13:27:00,
2013-09-01 09:32:00,67.9,65.2,29.83,WSW,249,1.0,3.0,91,0.00,,,0.01,Wunderground v.1.15,2013-09-01 13:32:00,
2013-09-01 09:37:00,67.9,65.2,29.83,South,172,0.0,3.0,91,0.00,,,0.01,Wunderground v.1.15,2013-09-01 13:37:00,
2013-09-01 09:42:00,68.2,65.2,29.83,SE,135,0.0,1.0,90,0.00,,,0.01,Wunderground v.1.15,2013-09-01 13:42:00,
2013-09-01 09:47:00,68.3,64.9,29.83,SE,124,0.0,2.0,89,0.00,,,0.01,Wunderground v.1.15,2013-09-01 13:47:00,
2013-09-01 09:52:00,68.5,65.4,29.83,ESE,112,0.0,1.0,90,0.00,,,0.01,Wunderground v.1.15,2013-09-01 13:52:00,
2013-09-01 09:57:00,68.8,65.7,29.83,SE,132,1.0,2.0,90,0.00,,,0.01,Wunderground v.1.15,2013-09-01 13:57:00,
2013-09-01 10:02:00,69.0,65.9,29.83,SW,236,1.0,2.0,90,0.00,,,0.01,Wunderground v.1.15,2013-09-01 14:02:00,
2013-09-01 10:07:00,69.4,66.0,29.83,SE,139,0.0,2.0,89,0.00,,,0.01,Wunderground v.1.15,2013-09-01 14:07:00,
2013-09-01 10:12:00,70.1,66.7,29.83,SE,133,0.0,3.0,89,0.00,,,0.01,Wunderground v.1.15,2013-09-01 14:12:00,
2013-09-01 10:17:00,70.5,66.4,29.83,South,184,2.0,4.0,87,0.00,,,0.01,Wunderground v.1.15,2013-09-01 14:17:00,
2013-09-01 10:22:00,70.8,66.4,29.83,SW,226,0.0,2.0,86,0.00,,,0.01,Wunderground v.1.15,2013-09-01 14:22:00,
2013-09-01 10:27:00,71.5,66.8,29.83,SE,132,1.0,3.0,85,0.00,,,0.01,Wunderground v.1.15,2013-09-01 14:27:00,
2013-09-01 10:32:00,72.3,66.8,29.83,SW,226,2.0,3.0,83,0.00,,,0.01,Wunderground v.1.15,2013-09-01 14:32:00,
2013-09-01 10:37:00,72.8,66.6,29.83,SW,226,3.0,5.0,81,0.00,,,0.01,Wunderground v.1.15,2013-09-01 14:37:00,
2013-09-01 10:42:00,73.1,66.6,29.83,SSE,160,2.0,5.0,80,0.00,,,0.01,Wunderground v.1.15,2013-09-01 14:42:00,
2013-09-01 10:47:00,73.3,67.1,29.82,SSE,167,3.0,6.0,81,0.00,,,0.01,Wunderground v.1.15,2013-09-01 14:47:00,
2013-09-01 10:52:00,73.5,66.9,29.83,SSW,205,1.0,6.0,80,0.00,,,0.01,Wunderground v.1.15,2013-09-01 14:52:00,
2013-09-01 10:57:00,73.1,66.6,29.83,SW,225,3.0,8.0,80,0.00,,,0.01,Wunderground v.1.15,2013-09-01 14:57:00,
2013-09-01 11:02:00,72.8,66.6,29.83,SW,233,0.0,6.0,81,0.00,,,0.01,Wunderground v.1.15,2013-09-01 15:02:00,
2013-09-01 11:07:00,72.9,66.7,29.83,WSW,253,1.0,7.0,81,0.00,,,0.01,Wunderground v.1.15,2013-09-01 15:07:00,
2013-09-01 11:12:00,73.1,66.9,29.83,SSE,153,3.0,5.0,81,0.00,,,0.01,Wunderground v.1.15,2013-09-01 15:12:00,
2013-09-01 11:17:00,73.1,65.8,29.83,SE,135,4.0,6.0,78,0.00,,,0.01,Wunderground v.1.15,2013-09-01 15:17:00,
2013-09-01 11:22:00,73.1,66.2,29.83,WSW,253,0.0,3.0,79,0.00,,,0.01,Wunderground v.1.15,2013-09-01 15:22:00,
2013-09-01 11:27:00,73.1,65.8,29.83,South,175,3.0,3.0,78,0.00,,,0.01,Wunderground v.1.15,2013-09-01 15:27:00,
2013-09-01 11:32:00,72.8,65.5,29.83,SSE,160,3.0,4.0,78,0.00,,,0.01,Wunderground v.1.15,2013-09-01 15:32:00,
2013-09-01 11:37:00,72.6,65.3,29.83,SSE,158,1.0,4.0,78,0.00,,,0.01,Wunderground v.1.15,2013-09-01 15:37:00,
2013-09-01 11:42:00,72.6,65.3,29.83,SSE,160,3.0,6.0,78,0.00,,,0.01,Wunderground v.1.15,2013-09-01 15:42:00,
2013-09-01 11:47:00,72.6,66.1,29.83,WSW,246,2.0,6.0,80,0.00,,,0.01,Wunderground v.1.15,2013-09-01 15:47:00,
2013-09-01 11:52:00,72.7,66.2,29.83,SSW,204,2.0,2.0,80,0.00,,,0.01,Wunderground v.1.15,2013-09-01 15:52:00,
2013-09-01 11:57:00,72.6,66.4,29.83,SW,224,1.0,3.0,81,0.00,,,0.01,Wunderground v.1.15,2013-09-01 15:57:00,
2013-09-01 12:02:00,72.5,66.0,29.83,SW,215,4.0,6.0,80,0.00,,,0.01,Wunderground v.1.15,2013-09-01 16:02:00,
2013-09-01 12:07:00,72.5,66.0,29.83,WNW,287,5.0,7.0,80,0.00,,,0.01,Wunderground v.1.15,2013-09-01 16:07:00,
2013-09-01 12:12:00,72.8,66.6,29.83,NNW,348,0.0,3.0,81,0.00,,,0.01,Wunderground v.1.15,2013-09-01 16:12:00,
2013-09-01 12:17:00,73.0,66.5,29.83,South,183,1.0,4.0,80,0.00,,,0.01,Wunderground v.1.15,2013-09-01 16:17:00,
2013-09-01 12:22:00,73.0,66.8,29.83,WSW,249,0.0,3.0,81,0.00,,,0.01,Wunderground v.1.15,2013-09-01 16:22:00,
2013-09-01 12:27:00,72.7,65.8,29.83,West,269,2.0,7.0,79,0.00,,,0.01,Wunderground v.1.15,2013-09-01 16:27:00,
2013-09-01 12:32:00,72.5,66.0,29.83,SW,236,1.0,4.0,80,0.00,,,0.01,Wunderground v.1.15,2013-09-01 16:32:00,
2013-09-01 12:37:00,72.5,66.7,29.83,WNW,283,2.0,4.0,82,0.00,,,0.01,Wunderground v.1.15,2013-09-01 16:37:00,
2013-09-01 12:42:00,72.2,66.7,29.83,West,274,0.0,4.0,83,0.00,,,0.01,Wunderground v.1.15,2013-09-01 16:42:00,
2013-09-01 12:47:00,72.0,66.6,29.83,South,181,1.0,4.0,83,0.00,,,0.01,Wunderground v.1.15,2013-09-01 16:47:00,
2013-09-01 12:52:00,71.8,66.7,29.83,SW,228,0.0,4.0,84,0.00,,,0.01,Wunderground v.1.15,2013-09-01 16:52:00,
2013-09-01 12:57:00,71.8,66.4,29.83,SSW,209,4.0,5.0,83,0.00,,,0.01,Wunderground v.1.15,2013-09-01 16:57:00,
2013-09-01 13:02:00,71.8,66.7,29.83,West,259,1.0,3.0,84,0.00,,,0.01,Wunderground v.1.15,2013-09-01 17:02:00,
2013-09-01 13:07:00,71.9,66.8,29.83,SW,228,6.0,6.0,84,0.00,,,0.01,Wunderground v.1.15,2013-09-01 17:07:00,
2013-09-01 13:12:00,71.9,66.8,29.83,SSW,193,3.0,7.0,84,0.00,,,0.01,Wunderground v.1.15,2013-09-01 17:12:00,
2013-09-01 13:17:00,72.0,66.6,29.83,WSW,241,6.0,8.0,83,0.00,,,0.01,Wunderground v.1.15,2013-09-01 17:17:00,
2013-09-01 13:22:00,72.0,66.2,29.83,SSE,155,1.0,4.0,82,0.00,,,0.01,Wunderground v.1.15,2013-09-01 17:22:00,
2013-09-01 13:27:00,72.2,66.4,29.83,SSW,207,1.0,5.0,82,0.00,,,0.01,Wunderground v.1.15,2013-09-01 17:27:00,
2013-09-01 13:32:00,72.2,67.1,29.83,WSW,245,0.0,3.0,84,0.00,,,0.01,Wunderground v.1.15,2013-09-01 17:32:00,
2013-09-01 13:37:00,72.0,66.6,29.83,SSW,212,2.0,4.0,83,0.00,,,0.01,Wunderground v.1.15,2013-09-01 17:37:00,
2013-09-01 13:42:00,71.5,66.8,29.83,SW,223,2.0,3.0,85,0.00,,,0.01,Wunderground v.1.15,2013-09-01 17:42:00,
2013-09-01 13:47:00,71.4,67.3,29.82,SSW,205,0.0,3.0,87,0.00,,,0.01,Wunderground v.1.15,2013-09-01 17:47:00,
2013-09-01 13:52:00,71.1,66.7,29.82,SW,225,3.0,4.0,86,0.00,,,0.01,Wunderground v.1.15,2013-09-01 17:52:00,
2013-09-01 13:57:00,70.9,66.2,29.82,SSW,211,0.0,4.0,85,0.00,,,0.01,Wunderground v.1.15,2013-09-01 17:57:00,
2013-09-01 14:02:00,71.0,66.9,29.81,WNW,300,1.0,2.0,87,0.00,,,0.01,Wunderground v.1.15,2013-09-01 18:02:00,
2013-09-01 14:07:00,70.9,67.2,29.82,WSW,239,0.0,3.0,88,0.00,,,0.01,Wunderground v.1.15,2013-09-01 18:07:00,
2013-09-01 14:12:00,70.8,67.4,29.82,West,270,0.0,1.0,89,0.00,,,0.01,Wunderground v.1.15,2013-09-01 18:12:00,
2013-09-01 14:17:00,70.8,67.4,29.82,SW,232,1.0,2.0,89,0.00,,,0.01,Wunderground v.1.15,2013-09-01 18:17:00,
2013-09-01 14:22:00,70.6,66.9,29.82,West,259,2.0,3.0,88,0.00,,,0.01,Wunderground v.1.15,2013-09-01 18:22:00,
2013-09-01 14:27:00,70.5,67.1,29.82,NW,321,2.0,4.0,89,0.00,,,0.01,Wunderground v.1.15,2013-09-01 18:27:00,
2013-09-01 14:32:00,70.6,67.2,29.81,West,264,1.0,2.0,89,0.00,,,0.01,Wunderground v.1.15,2013-09-01 18:32:00,
2013-09-01 14:37:00,70.9,67.5,29.81,West,266,3.0,3.0,89,0.00,,,0.01,Wunderground v.1.15,2013-09-01 18:37:00,
2013-09-01 14:42:00,71.3,67.9,29.81,SSW,205,2.0,2.0,89,0.00,,,0.01,Wunderground v.1.15,2013-09-01 18:42:00,
2013-09-01 14:47:00,71.8,68.1,29.80,West,259,0.0,2.0,88,0.00,,,0.01,Wunderground v.1.15,2013-09-01 18:47:00,
2013-09-01 14:52:00,72.7,68.6,29.80,SSW,205,0.0,3.0,87,0.00,,,0.01,Wunderground v.1.15,2013-09-01 18:52:00,
2013-09-01 14:57:00,73.6,69.2,29.80,SE,132,3.0,5.0,86,0.00,,,0.01,Wunderground v.1.15,2013-09-01 18:57:00,
2013-09-01 15:02:00,73.7,68.2,29.80,SW,229,3.0,4.0,83,0.00,,,0.01,Wunderground v.1.15,2013-09-01 19:02:00,
2013-09-01 15:07:00,73.7,68.6,29.80,South,182,0.0,4.0,84,0.00,,,0.01,Wunderground v.1.15,2013-09-01 19:07:00,
2013-09-01 15:12:00,73.5,68.4,29.79,North,350,2.0,4.0,84,0.00,,,0.01,Wunderground v.1.15,2013-09-01 19:12:00,
2013-09-01 15:17:00,73.2,68.4,29.79,South,177,2.0,4.0,85,0.00,,,0.01,Wunderground v.1.15,2013-09-01 19:17:00,
2013-09-01 15:22:00,73.1,68.0,29.79,West,276,0.0,2.0,84,0.00,,,0.01,Wunderground v.1.15,2013-09-01 19:22:00,
2013-09-01 15:27:00,73.1,68.0,29.79,South,183,3.0,3.0,84,0.00,,,0.01,Wunderground v.1.15,2013-09-01 19:27:00,
2013-09-01 15:32:00,72.8,68.0,29.79,SSW,200,1.0,2.0,85,0.00,,,0.01,Wunderground v.1.15,2013-09-01 19:32:00,
2013-09-01 15:37:00,73.1,68.7,29.79,SSE,155,1.0,2.0,86,0.00,,,0.01,Wunderground v.1.15,2013-09-01 19:37:00,
2013-09-01 15:42:00,73.0,67.2,29.78,WSW,250,4.0,6.0,82,0.00,,,0.01,Wunderground v.1.15,2013-09-01 19:42:00,
2013-09-01 15:47:00,72.8,66.3,29.78,SW,219,2.0,6.0,80,0.00,,,0.01,Wunderground v.1.15,2013-09-01 19:47:00,
2013-09-01 15:52:00,72.9,66.4,29.78,SW,214,0.0,2.0,80,0.00,,,0.01,Wunderground v.1.15,2013-09-01 19:52:00,
2013-09-01 15:57:00,73.1,66.2,29.78,WSW,240,3.0,4.0,79,0.00,,,0.01,Wunderground v.1.15,2013-09-01 19:57:00,
2013-09-01 16:02:00,73.2,66.7,29.78,WNW,295,3.0,3.0,80,0.00,,,0.01,Wunderground v.1.15,2013-09-01 20:02:00,
2013-09-01 16:07:00,73.2,67.0,29.78,West,277,1.0,3.0,81,0.00,,,0.01,Wunderground v.1.15,2013-09-01 20:07:00,
2013-09-01 16:12:00,73.0,67.2,29.78,WSW,253,1.0,2.0,82,0.00,,,0.01,Wunderground v.1.15,2013-09-01 20:12:00,
2013-09-01 16:17:00,73.0,67.5,29.78,SSW,213,1.0,2.0,83,0.00,,,0.01,Wunderground v.1.15,2013-09-01 20:17:00,
2013-09-01 16:22:00,73.0,67.5,29.78,West,279,1.0,3.0,83,0.00,,,0.01,Wunderground v.1.15,2013-09-01 20:22:00,
2013-09-01 16:27:00,72.6,67.5,29.78,WSW,253,2.0,4.0,84,0.00,,,0.01,Wunderground v.1.15,2013-09-01 20:27:00,
2013-09-01 16:32:00,72.1,67.7,29.78,NW,307,1.0,3.0,86,0.00,,,0.01,Wunderground v.1.15,2013-09-01 20:32:00,
2013-09-01 16:37:00,72.0,68.2,29.78,WSW,243,0.0,3.0,88,0.00,,,0.01,Wunderground v.1.15,2013-09-01 20:37:00,
2013-09-01 16:42:00,72.3,68.2,29.77,SSE,153,0.0,4.0,87,0.00,,,0.01,Wunderground v.1.15,2013-09-01 20:42:00,
2013-09-01 16:47:00,73.0,68.2,29.77,SW,236,2.0,4.0,85,0.00,,,0.01,Wunderground v.1.15,2013-09-01 20:47:00,
2013-09-01 16:52:00,73.4,67.6,29.77,SSW,206,1.0,2.0,82,0.00,,,0.01,Wunderground v.1.15,2013-09-01 20:52:00,
2013-09-01 16:57:00,73.8,67.6,29.77,South,188,0.0,3.0,81,0.00,,,0.01,Wunderground v.1.15,2013-09-01 20:57:00,
2013-09-01 17:02:00,74.7,68.8,29.77,SSE,155,1.0,1.0,82,0.00,,,0.01,Wunderground v.1.15,2013-09-01 21:02:00,
2013-09-01 17:07:00,74.7,67.4,29.77,WSW,246,2.0,2.0,78,0.00,,,0.01,Wunderground v.1.15,2013-09-01 21:07:00,
2013-09-01 17:12:00,73.9,67.3,29.77,WSW,256,1.0,2.0,80,0.00,,,0.01,Wunderground v.1.15,2013-09-01 21:12:00,
2013-09-01 17:17:00,73.2,67.0,29.77,WNW,283,2.0,5.0,81,0.00,,,0.01,Wunderground v.1.15,2013-09-01 21:17:00,
2013-09-01 17:22:00,72.5,67.0,29.77,SSW,208,1.0,3.0,83,0.00,,,0.01,Wunderground v.1.15,2013-09-01 21:22:00,
2013-09-01 17:27:00,72.1,67.0,29.77,SSW,210,1.0,3.0,84,0.00,,,0.01,Wunderground v.1.15,2013-09-01 21:27:00,
2013-09-01 17:32:00,71.8,67.0,29.77,WSW,238,2.0,3.0,85,0.00,,,0.01,Wunderground v.1.15,2013-09-01 21:32:00,
2013-09-01 17:37:00,71.7,67.3,29.77,WSW,253,1.0,3.0,86,0.00,,,0.01,Wunderground v.1.15,2013-09-01 21:37:00,
2013-09-01 17:42:00,71.6,67.5,29.78,SW,215,2.0,3.0,87,0.00,,,0.01,Wunderground v.1.15,2013-09-01 21:42:00,
2013-09-01 17:47:00,71.5,67.4,29.78,SW,218,0.0,3.0,87,0.00,,,0.01,Wunderground v.1.15,2013-09-01 21:47:00,
2013-09-01 17:52:00,71.3,67.6,29.78,SW,236,2.0,4.0,88,0.00,,,0.01,Wunderground v.1.15,2013-09-01 21:52:00,
2013-09-01 17:57:00,70.9,67.5,29.78,SSE,167,1.0,4.0,89,0.00,,,0.02,Wunderground v.1.15,2013-09-01 21:57:00,
2013-09-01 18:02:00,70.3,67.5,29.78,WNW,300,0.0,2.0,91,0.06,,,0.02,Wunderground v.1.15,2013-09-01 22:02:00,
2013-09-01 18:07:00,69.8,67.7,29.78,NW,315,2.0,3.0,93,0.94,,,0.06,Wunderground v.1.15,2013-09-01 22:07:00,
2013-09-01 18:12:00,69.2,67.4,29.78,WNW,283,0.0,2.0,94,0.34,,,0.09,Wunderground v.1.15,2013-09-01 22:12:00,
2013-09-01 18:17:00,69.2,67.7,29.78,WSW,256,0.0,2.0,95,0.21,,,0.12,Wunderground v.1.15,2013-09-01 22:17:00,
2013-09-01 18:22:00,69.4,68.2,29.78,SW,225,1.0,1.0,96,0.08,,,0.12,Wunderground v.1.15,2013-09-01 22:22:00,
2013-09-01 18:27:00,69.4,68.2,29.78,SSW,203,0.0,1.0,96,0.05,,,0.12,Wunderground v.1.15,2013-09-01 22:27:00,
2013-09-01 18:32:00,69.4,68.2,29.78,WSW,240,1.0,1.0,96,0.00,,,0.12,Wunderground v.1.15,2013-09-01 22:32:00,
2013-09-01 18:37:00,69.4,68.2,29.78,WSW,250,2.0,2.0,96,0.00,,,0.12,Wunderground v.1.15,2013-09-01 22:37:00,
2013-09-01 18:42:00,69.3,68.1,29.77,WSW,246,0.0,2.0,96,0.00,,,0.12,Wunderground v.1.15,2013-09-01 22:42:00,
2013-09-01 18:47:00,69.7,68.5,29.77,West,259,0.0,2.0,96,0.00,,,0.12,Wunderground v.1.15,2013-09-01 22:47:00,
2013-09-01 18:52:00,69.9,68.1,29.77,WSW,241,1.0,2.0,94,0.00,,,0.12,Wunderground v.1.15,2013-09-01 22:52:00,
2013-09-01 18:57:00,69.9,68.1,29.77,SW,231,2.0,2.0,94,0.00,,,0.12,Wunderground v.1.15,2013-09-01 22:57:00,
2013-09-01 19:02:00,70.0,68.2,29.78,West,278,0.0,1.0,94,0.00,,,0.12,Wunderground v.1.15,2013-09-01 23:02:00,
2013-09-01 19:07:00,69.8,67.7,29.78,WSW,253,1.0,2.0,93,0.00,,,0.12,Wunderground v.1.15,2013-09-01 23:07:00,
2013-09-01 19:12:00,69.3,67.2,29.78,NNW,329,0.0,1.0,93,0.00,,,0.12,Wunderground v.1.15,2013-09-01 23:12:00,
2013-09-01 19:17:00,69.0,67.2,29.78,SSW,211,1.0,1.0,94,0.00,,,0.12,Wunderground v.1.15,2013-09-01 23:17:00,
2013-09-01 19:22:00,68.7,67.2,29.78,WSW,243,1.0,2.0,95,0.00,,,0.12,Wunderground v.1.15,2013-09-01 23:22:00,
2013-09-01 19:27:00,68.5,67.3,29.78,SW,221,1.0,2.0,96,0.00,,,0.12,Wunderground v.1.15,2013-09-01 23:27:00,
2013-09-01 19:32:00,68.3,67.1,29.78,SSW,201,0.0,1.0,96,0.00,,,0.12,Wunderground v.1.15,2013-09-01 23:32:00,
2013-09-01 19:37:00,68.1,67.2,29.78,SSW,202,0.0,1.0,97,0.00,,,0.12,Wunderground v.1.15,2013-09-01 23:37:00,
2013-09-01 19:42:00,67.9,67.0,29.79,West,270,0.0,1.0,97,0.00,,,0.12,Wunderground v.1.15,2013-09-01 23:42:00,
2013-09-01 19:47:00,67.7,66.8,29.79,SSW,211,0.0,1.0,97,0.00,,,0.12,Wunderground v.1.15,2013-09-01 23:47:00,
2013-09-01 19:52:00,67.5,66.6,29.79,SSW,211,0.0,0.0,97,0.00,,,0.12,Wunderground v.1.15,2013-09-01 23:52:00,
2013-09-01 19:57:00,67.5,66.9,29.79,SSW,211,0.0,0.0,98,0.00,,,0.12,Wunderground v.1.15,2013-09-01 23:57:00,
2013-09-01 20:02:00,67.4,66.8,29.80,SSW,203,0.0,1.0,98,0.00,,,0.12,Wunderground v.1.15,2013-09-02 00:02:00,
2013-09-01 20:07:00,67.4,66.8,29.79,SSW,203,0.0,1.0,98,0.00,,,0.12,Wunderground v.1.15,2013-09-02 00:07:00,
2013-09-01 20:12:00,67.3,66.7,29.80,SSW,203,0.0,0.0,98,0.00,,,0.12,Wunderground v.1.15,2013-09-02 00:12:00,
2013-09-01 20:17:00,67.2,66.6,29.80,SSW,203,0.0,0.0,98,0.00,,,0.12,Wunderground v.1.15,2013-09-02 00:17:00,
2013-09-01 20:22:00,67.1,66.5,29.80,SSW,203,0.0,1.0,98,0.00,,,0.12,Wunderground v.1.15,2013-09-02 00:22:00,
2013-09-01 20:43:00,66.7,66.4,29.80,WSW,245,0.0,0.0,99,0.00,,,0.12,Wunderground v.1.15,2013-09-02 00:43:00,
2013-09-01 20:48:00,66.6,66.3,29.80,WSW,248,0.0,1.0,99,0.00,,,0.12,Wunderground v.1.15,2013-09-02 00:48:00,
2013-09-01 20:53:00,66.5,66.2,29.80,West,263,0.0,1.0,99,0.00,,,0.12,Wunderground v.1.15,2013-09-02 00:53:00,
2013-09-01 20:58:00,66.4,66.1,29.80,West,278,2.0,2.0,99,0.00,,,0.12,Wunderground v.1.15,2013-09-02 00:58:00,
2013-09-01 21:03:00,66.5,66.2,29.80,West,263,0.0,1.0,99,0.00,,,0.12,Wunderground v.1.15,2013-09-02 01:03:00,
2013-09-01 21:08:00,66.4,66.1,29.81,WSW,240,2.0,4.0,99,0.00,,,0.12,Wunderground v.1.15,2013-09-02 01:08:00,
2013-09-01 21:13:00,66.3,66.0,29.81,NE,44,0.0,2.0,99,0.00,,,0.12,Wunderground v.1.15,2013-09-02 01:13:00,
2013-09-01 21:18:00,66.3,66.0,29.81,SSW,201,0.0,2.0,99,0.00,,,0.12,Wunderground v.1.15,2013-09-02 01:18:00,
2013-09-01 21:23:00,66.3,66.3,29.82,WSW,256,0.0,2.0,100,0.00,,,0.12,Wunderground v.1.15,2013-09-02 01:23:00,
2013-09-01 21:28:00,66.4,66.4,29.82,SW,221,3.0,4.0,100,0.00,,,0.12,Wunderground v.1.15,2013-09-02 01:28:00,
2013-09-01 21:33:00,66.4,66.4,29.82,West,280,1.0,3.0,100,0.00,,,0.12,Wunderground v.1.15,2013-09-02 01:33:00,
2013-09-01 21:38:00,66.3,66.3,29.82,WSW,250,1.0,3.0,100,0.00,,,0.12,Wunderground v.1.15,2013-09-02 01:38:00,
2013-09-01 21:43:00,66.3,66.3,29.82,West,263,0.0,3.0,100,0.00,,,0.12,Wunderground v.1.15,2013-09-02 01:43:00,
2013-09-01 21:48:00,66.2,66.2,29.82,SSW,207,0.0,3.0,100,0.00,,,0.12,Wunderground v.1.15,2013-09-02 01:48:00,
2013-09-01 21:53:00,66.1,66.1,29.81,South,188,0.0,2.0,100,0.00,,,0.12,Wunderground v.1.15,2013-09-02 01:53:00,
2013-09-01 21:58:00,66.0,66.0,29.82,SW,224,0.0,2.0,100,0.00,,,0.12,Wunderground v.1.15,2013-09-02 01:58:00,
2013-09-01 22:03:00,65.8,65.8,29.81,NW,322,0.0,1.0,100,0.00,,,0.12,Wunderground v.1.15,2013-09-02 02:03:00,
2013-09-01 22:08:00,65.8,65.8,29.81,SW,214,0.0,2.0,100,0.00,,,0.12,Wunderground v.1.15,2013-09-02 02:08:00,
2013-09-01 22:13:00,65.7,65.7,29.82,WSW,239,0.0,2.0,100,0.00,,,0.12,Wunderground v.1.15,2013-09-02 02:13:00,
2013-09-01 22:18:00,65.6,65.6,29.82,SW,226,0.0,3.0,100,0.00,,,0.12,Wunderground v.1.15,2013-09-02 02:18:00,
2013-09-01 22:23:00,65.5,65.5,29.82,SW,226,1.0,2.0,100,0.00,,,0.12,Wunderground v.1.15,2013-09-02 02:23:00,
2013-09-01 22:28:00,65.5,65.5,29.82,SW,215,0.0,2.0,100,0.00,,,0.12,Wunderground v.1.15,2013-09-02 02:28:00,
2013-09-01 22:33:00,65.4,65.4,29.82,SSW,207,0.0,1.0,100,0.00,,,0.12,Wunderground v.1.15,2013-09-02 02:33:00,
2013-09-01 22:38:00,65.4,65.4,29.82,WSW,256,0.0,2.0,100,0.00,,,0.12,Wunderground v.1.15,2013-09-02 02:38:00,
2013-09-01 22:43:00,65.4,65.4,29.82,WSW,256,0.0,0.0,100,0.00,,,0.12,Wunderground v.1.15,2013-09-02 02:43:00,
2013-09-01 22:48:00,65.4,65.4,29.82,West,262,0.0,1.0,100,0.00,,,0.12,Wunderground v.1.15,2013-09-02 02:48:00,
2013-09-01 22:53:00,65.3,65.3,29.82,WNW,284,0.0,1.0,100,0.00,,,0.12,Wunderground v.1.15,2013-09-02 02:53:00,
2013-09-01 22:58:00,65.3,65.3,29.82,WSW,248,1.0,2.0,100,0.00,,,0.12,Wunderground v.1.15,2013-09-02 02:58:00,
2013-09-01 23:03:00,65.4,65.4,29.82,West,263,1.0,3.0,100,0.00,,,0.12,Wunderground v.1.15,2013-09-02 03:03:00,
2013-09-01 23:08:00,65.4,65.4,29.82,SW,233,1.0,3.0,100,0.00,,,0.12,Wunderground v.1.15,2013-09-02 03:08:00,
2013-09-01 23:13:00,65.4,65.4,29.82,WSW,246,0.0,2.0,100,0.00,,,0.12,Wunderground v.1.15,2013-09-02 03:13:00,
2013-09-01 23:18:00,65.4,65.4,29.82,WSW,247,0.0,2.0,100,0.00,,,0.12,Wunderground v.1.15,2013-09-02 03:18:00,
2013-09-01 23:23:00,65.3,65.3,29.82,WSW,247,0.0,1.0,100,0.00,,,0.12,Wunderground v.1.15,2013-09-02 03:23:00,
2013-09-01 23:28:00,65.1,65.1,29.81,WSW,247,0.0,1.0,100,0.00,,,0.12,Wunderground v.1.15,2013-09-02 03:28:00,
2013-09-01 23:33:00,65.3,65.3,29.82,SSW,211,0.0,0.0,100,0.00,,,0.12,Wunderground v.1.15,2013-09-02 03:33:00,
2013-09-01 23:38:00,65.2,65.2,29.81,WSW,253,1.0,1.0,100,0.00,,,0.12,Wunderground v.1.15,2013-09-02 03:38:00,
2013-09-01 23:43:00,65.2,65.2,29.82,WSW,250,0.0,1.0,100,0.00,,,0.12,Wunderground v.1.15,2013-09-02 03:43:00,
2013-09-01 23:48:00,65.2,65.2,29.82,WSW,250,0.0,1.0,100,0.00,,,0.12,Wunderground v.1.15,2013-09-02 03:48:00,
2013-09-01 23:53:00,65.0,65.0,29.82,WSW,250,0.0,0.0,100,0.00,,,0.12,Wunderground v.1.15,2013-09-02 03:53:00,
2013-09-01 23:58:00,64.7,64.7,29.82,WSW,250,0.0,0.0,100,0.00,,,0.12,Wunderground v.1.15,2013-09-02 03:58:00,